createdAt,value
2019-01-12T00:00:55.799Z,6.53
2019-01-12T00:03:24.984Z,4.67
2019-01-12T00:06:01.429Z,9.13
2019-01-12T00:08:30.625Z,8.73
2019-01-12T00:10:59.836Z,5.07
2019-01-12T00:13:29.001Z,6.37
2019-01-12T00:15:58.195Z,8.77
2019-01-12T00:18:29.911Z,4.13
2019-01-12T00:20:58.259Z,6.10
2019-01-12T00:23:27.460Z,6.67
2019-01-12T00:25:56.631Z,3.43
2019-01-12T00:28:25.806Z,6.10
2019-01-12T00:30:55.012Z,4.23
2019-01-12T00:33:24.180Z,4.40
2019-01-12T00:35:53.354Z,3.13
2019-01-12T00:38:22.549Z,7.93
2019-01-12T00:40:51.720Z,5.03
2019-01-12T00:43:20.909Z,4.60
2019-01-12T00:45:50.193Z,8.87
2019-01-12T00:48:37.200Z,7.03
2019-01-12T00:51:06.604Z,5.87
2019-01-12T00:53:35.763Z,4.70
2019-01-12T00:56:05.004Z,8.17
2019-01-12T00:58:34.202Z,2.70
2019-01-12T01:01:03.398Z,4.83
2019-01-12T01:03:32.550Z,4.47
2019-01-12T01:06:01.763Z,4.33
2019-01-12T01:08:30.940Z,7.33
2019-01-12T01:11:00.112Z,5.00
2019-01-12T01:13:29.304Z,6.40
2019-01-12T01:15:58.469Z,6.70
2019-01-12T01:18:27.656Z,5.83
2019-01-12T01:20:56.855Z,5.43
2019-01-12T01:23:26.031Z,5.70
2019-01-12T01:25:55.792Z,7.47
2019-01-12T01:28:25.000Z,6.07
2019-01-12T01:30:54.172Z,8.10
2019-01-12T01:33:27.966Z,4.90
2019-01-12T01:35:54.391Z,7.77
2019-01-12T01:38:23.571Z,11.07
2019-01-12T01:40:52.758Z,15.37
2019-01-12T01:43:21.970Z,13.50
2019-01-12T01:45:51.159Z,17.67
2019-01-12T01:48:20.380Z,13.73
2019-01-12T01:50:49.542Z,16.73
2019-01-12T01:53:18.711Z,17.70
2019-01-12T01:55:47.878Z,20.50
2019-01-12T01:58:17.090Z,22.67
2019-01-12T02:00:46.273Z,22.03
2019-01-12T02:03:15.451Z,16.27
2019-01-12T02:05:44.663Z,24.77
2019-01-12T02:08:13.854Z,20.40
2019-01-12T02:10:43.041Z,27.23
2019-01-12T02:13:12.309Z,27.13
2019-01-12T02:15:41.484Z,22.40
2019-01-12T02:18:10.708Z,18.63
2019-01-12T02:20:39.918Z,21.77
2019-01-12T02:23:09.113Z,22.33
2019-01-12T02:25:38.294Z,22.17
2019-01-12T02:28:07.495Z,22.00
2019-01-12T02:30:36.693Z,21.30
2019-01-12T02:33:05.893Z,20.30
2019-01-12T02:35:35.098Z,23.43
2019-01-12T02:38:04.280Z,20.70
2019-01-12T02:40:34.689Z,22.07
2019-01-12T02:43:03.945Z,18.70
2019-01-12T02:45:33.155Z,23.63
2019-01-12T02:48:02.354Z,24.23
2019-01-12T02:50:31.524Z,20.93
2019-01-12T02:53:00.724Z,21.07
2019-01-12T02:55:29.930Z,19.20
2019-01-12T02:58:00.129Z,24.17
2019-01-12T03:00:29.457Z,18.83
2019-01-12T03:02:58.636Z,17.13
2019-01-12T03:05:27.894Z,18.13
2019-01-12T03:07:57.084Z,20.40
2019-01-12T03:10:26.253Z,20.73
2019-01-12T03:12:55.628Z,17.53
2019-01-12T03:15:24.828Z,17.57
2019-01-12T03:17:54.028Z,16.23
2019-01-12T03:20:23.210Z,14.07
2019-01-12T03:22:52.394Z,16.93
2019-01-12T03:25:21.586Z,16.40
2019-01-12T03:27:50.780Z,16.53
2019-01-12T03:30:20.061Z,15.73
2019-01-12T03:32:49.524Z,11.33
2019-01-12T03:35:18.734Z,12.90
2019-01-12T03:37:48.002Z,13.40
2019-01-12T03:40:17.803Z,11.13
2019-01-12T03:42:47.044Z,16.70
2019-01-12T03:45:17.292Z,10.10
2019-01-12T03:47:46.448Z,13.33
2019-01-12T03:50:16.962Z,14.73
2019-01-12T03:52:46.180Z,10.87
2019-01-12T03:55:15.439Z,9.00
2019-01-12T03:57:44.575Z,8.80
2019-01-12T04:00:16.784Z,8.40
2019-01-12T04:02:45.958Z,8.87
2019-01-12T04:05:15.183Z,9.27
2019-01-12T04:07:44.367Z,14.63
2019-01-12T04:10:14.208Z,8.20
2019-01-12T04:12:43.360Z,10.23
2019-01-12T04:15:13.668Z,7.70
2019-01-12T04:17:43.012Z,6.83
2019-01-12T04:20:14.634Z,6.50
2019-01-12T04:22:43.815Z,6.87
2019-01-12T04:25:13.444Z,10.83
2019-01-12T04:27:44.323Z,5.83
2019-01-12T04:30:15.883Z,7.50
2019-01-12T04:32:45.077Z,7.33
2019-01-12T04:35:14.305Z,6.50
2019-01-12T04:37:43.542Z,7.40
2019-01-12T04:40:15.477Z,7.67
2019-01-12T04:42:44.743Z,5.87
2019-01-12T04:45:14.393Z,5.57
2019-01-12T04:47:43.571Z,5.33
2019-01-12T04:50:14.888Z,6.37
2019-01-12T04:52:44.111Z,8.37
2019-01-12T04:55:14.304Z,8.43
2019-01-12T04:57:43.462Z,10.27
2019-01-12T05:00:15.293Z,7.40
2019-01-12T05:02:44.551Z,6.47
2019-01-12T05:05:13.864Z,7.53
2019-01-12T05:07:43.039Z,6.97
2019-01-12T05:10:13.468Z,7.63
2019-01-12T05:12:42.638Z,9.30
2019-01-12T05:15:13.943Z,9.23
2019-01-12T05:17:43.241Z,9.33
2019-01-12T05:20:15.438Z,6.43
2019-01-12T05:22:44.668Z,9.57
2019-01-12T05:25:13.882Z,10.27
2019-01-12T05:27:43.057Z,9.17
2019-01-12T05:30:17.390Z,12.07
2019-01-12T05:32:46.646Z,16.83
2019-01-12T05:35:15.832Z,9.97
2019-01-12T05:37:45.062Z,14.57
2019-01-12T05:40:14.400Z,11.90
2019-01-12T05:42:43.586Z,10.97
2019-01-12T05:45:13.808Z,12.03
2019-01-12T05:47:43.000Z,10.13
2019-01-12T05:50:13.325Z,11.10
2019-01-12T05:52:42.572Z,10.17
2019-01-12T05:55:11.928Z,9.53
2019-01-12T05:57:41.115Z,13.20
2019-01-12T06:00:18.148Z,18.10
2019-01-12T06:02:47.358Z,13.77
2019-01-12T06:05:16.528Z,12.33
2019-01-12T06:07:45.716Z,10.43
2019-01-12T06:10:15.054Z,15.20
2019-01-12T06:12:44.495Z,13.13
2019-01-12T06:15:14.304Z,13.10
2019-01-12T06:17:43.516Z,15.77
2019-01-12T06:20:14.834Z,12.97
2019-01-12T06:22:44.073Z,11.93
2019-01-12T06:25:13.343Z,11.70
2019-01-12T06:27:42.529Z,11.77
2019-01-12T06:30:14.895Z,16.03
2019-01-12T06:32:44.152Z,18.20
2019-01-12T06:35:13.397Z,16.83
2019-01-12T06:37:42.571Z,15.17
2019-01-12T06:40:14.708Z,14.77
2019-01-12T06:42:43.880Z,13.43
2019-01-12T06:45:15.095Z,12.33
2019-01-12T06:47:44.385Z,21.50
2019-01-12T06:50:15.894Z,13.33
2019-01-12T06:52:45.063Z,14.33
2019-01-12T06:55:14.316Z,13.67
2019-01-12T06:57:43.489Z,14.50
2019-01-12T07:00:15.543Z,18.60
2019-01-12T07:02:44.719Z,18.07
2019-01-12T07:05:13.974Z,19.00
2019-01-12T07:07:43.246Z,14.93
2019-01-12T07:10:14.480Z,20.87
2019-01-12T07:12:43.837Z,16.43
2019-01-12T07:15:14.449Z,16.13
2019-01-12T07:17:43.648Z,18.43
2019-01-12T07:20:14.571Z,14.93
2019-01-12T07:22:44.133Z,18.63
2019-01-12T07:25:13.369Z,16.03
2019-01-12T07:27:42.713Z,16.80
2019-01-12T07:30:14.930Z,21.60
2019-01-12T07:32:44.292Z,17.03
2019-01-12T07:35:13.475Z,22.13
2019-01-12T07:37:42.683Z,20.40
2019-01-12T07:40:11.934Z,17.03
2019-01-12T07:42:41.139Z,17.17
2019-01-12T07:45:11.095Z,21.37
2019-01-12T07:47:40.275Z,16.53
2019-01-12T07:50:12.019Z,23.93
2019-01-12T07:52:41.210Z,16.90
2019-01-12T07:55:10.650Z,25.93
2019-01-12T07:57:39.848Z,19.53
2019-01-12T08:00:15.226Z,18.97
2019-01-12T08:02:44.400Z,18.07
2019-01-12T08:05:15.025Z,20.57
2019-01-12T08:07:44.278Z,15.30
2019-01-12T08:10:19.228Z,19.73
2019-01-12T08:12:48.397Z,21.67
2019-01-12T08:15:17.650Z,14.40
2019-01-12T08:17:46.981Z,17.07
2019-01-12T08:20:16.230Z,20.30
2019-01-12T08:22:45.470Z,15.63
2019-01-12T08:25:33.783Z,17.20
2019-01-12T08:28:02.980Z,16.90
2019-01-12T08:30:32.161Z,18.47
2019-01-12T08:33:01.431Z,16.10
2019-01-12T08:35:30.625Z,20.97
2019-01-12T08:37:59.858Z,16.93
2019-01-12T08:40:29.050Z,11.07
2019-01-12T08:42:58.241Z,12.87
2019-01-12T08:45:27.419Z,12.40
2019-01-12T08:47:56.624Z,14.27
2019-01-12T08:50:26.756Z,11.93
2019-01-12T08:52:55.936Z,10.93
2019-01-12T08:55:25.138Z,10.80
2019-01-12T08:57:54.229Z,7.67
2019-01-12T09:00:23.653Z,7.63
2019-01-12T09:02:52.829Z,9.67
2019-01-12T09:05:22.026Z,7.07
2019-01-12T09:07:51.565Z,8.17
2019-01-12T09:10:20.860Z,8.70
2019-01-12T09:12:50.148Z,10.20
2019-01-12T09:15:19.321Z,7.57
2019-01-12T09:17:48.568Z,5.33
2019-01-12T09:20:17.835Z,7.33
2019-01-12T09:22:47.284Z,3.57
2019-01-12T09:25:16.518Z,9.00
2019-01-12T09:27:46.059Z,16.00
2019-01-12T09:30:18.372Z,14.53
2019-01-12T09:32:47.611Z,9.93
2019-01-12T09:35:16.970Z,8.73
2019-01-12T09:37:46.153Z,10.37
2019-01-12T09:40:17.636Z,9.93
2019-01-12T09:42:47.094Z,8.80
2019-01-12T09:45:17.729Z,11.67
2019-01-12T09:47:47.034Z,10.37
2019-01-12T09:50:17.774Z,11.17
2019-01-12T09:52:47.018Z,10.57
2019-01-12T09:55:16.787Z,11.97
2019-01-12T09:57:46.157Z,10.30
2019-01-12T10:00:20.595Z,9.67
2019-01-12T10:02:49.795Z,10.20
2019-01-12T10:05:19.124Z,9.97
2019-01-12T10:07:48.365Z,9.60
2019-01-12T10:10:20.009Z,12.27
2019-01-12T10:12:49.456Z,12.33
2019-01-12T10:15:18.624Z,17.17
2019-01-12T10:17:47.815Z,11.33
2019-01-12T10:20:18.459Z,12.77
2019-01-12T10:22:47.767Z,6.70
2019-01-12T10:25:17.386Z,10.13
2019-01-12T10:27:46.726Z,9.77
2019-01-12T10:30:18.879Z,6.57
2019-01-12T10:32:48.191Z,8.50
2019-01-12T10:35:17.460Z,8.30
2019-01-12T10:37:46.860Z,8.13
2019-01-12T10:40:19.433Z,7.93
2019-01-12T10:42:49.071Z,7.13
2019-01-12T10:45:20.851Z,10.50
2019-01-12T10:47:50.112Z,11.77
2019-01-12T10:50:22.434Z,7.87
2019-01-12T10:52:51.609Z,5.83
2019-01-12T10:55:20.854Z,12.83
2019-01-12T10:57:50.050Z,9.57
2019-01-12T11:00:28.088Z,6.83
2019-01-12T11:02:57.415Z,7.07
2019-01-12T11:05:26.931Z,12.33
2019-01-12T11:07:56.106Z,9.90
2019-01-12T11:10:25.305Z,10.57
2019-01-12T11:12:54.893Z,11.27
2019-01-12T11:15:24.024Z,14.50
2019-01-12T11:17:53.303Z,10.60
2019-01-12T11:20:22.578Z,11.40
2019-01-12T11:22:51.831Z,9.47
2019-01-12T11:25:21.024Z,18.23
2019-01-12T11:27:50.214Z,11.73
2019-01-12T11:30:20.235Z,15.70
2019-01-12T11:32:49.870Z,15.67
2019-01-12T11:35:19.042Z,11.47
2019-01-12T11:37:48.360Z,11.93
2019-01-12T11:40:20.065Z,15.80
2019-01-12T11:42:50.498Z,13.70
2019-01-12T11:45:20.048Z,17.47
2019-01-12T11:47:49.941Z,13.27
2019-01-12T11:50:19.129Z,16.03
2019-01-12T11:52:48.324Z,13.27
2019-01-12T11:55:18.867Z,10.27
2019-01-12T11:57:48.112Z,15.30
2019-01-12T12:00:23.105Z,14.20
2019-01-12T12:02:52.563Z,11.23
2019-01-12T12:05:21.884Z,17.60
2019-01-12T12:07:51.404Z,8.93
2019-01-12T12:10:21.337Z,14.83
2019-01-12T12:12:50.995Z,10.43
2019-01-12T12:15:21.397Z,11.93
2019-01-12T12:17:50.675Z,12.17
2019-01-12T12:20:22.423Z,13.27
2019-01-12T12:22:51.603Z,13.60
2019-01-12T12:25:38.999Z,12.83
2019-01-12T12:28:08.178Z,9.50
2019-01-12T12:30:37.359Z,12.77
2019-01-12T12:33:06.567Z,9.73
2019-01-12T12:35:37.848Z,11.73
2019-01-12T12:38:06.801Z,9.47
2019-01-12T12:40:36.991Z,11.03
2019-01-12T12:43:06.271Z,9.63
2019-01-12T12:45:35.725Z,11.47
2019-01-12T12:48:05.753Z,6.23
2019-01-12T12:50:35.066Z,13.53
2019-01-12T12:53:04.877Z,6.67
2019-01-12T12:55:34.048Z,7.30
2019-01-12T12:58:03.625Z,6.73
2019-01-12T13:00:33.808Z,6.50
2019-01-12T13:03:02.993Z,5.90
2019-01-12T13:05:33.260Z,14.03
2019-01-12T13:08:02.500Z,8.07
2019-01-12T13:10:31.678Z,11.60
2019-01-12T13:13:00.946Z,9.13
2019-01-12T13:15:30.281Z,6.03
2019-01-12T13:17:59.544Z,12.23
2019-01-12T13:20:41.179Z,9.07
2019-01-12T13:23:12.244Z,9.33
2019-01-12T13:25:41.435Z,12.60
2019-01-12T13:28:10.670Z,5.20
2019-01-12T13:30:39.864Z,12.33
2019-01-12T13:33:09.066Z,9.70
2019-01-12T13:35:38.254Z,8.47
2019-01-12T13:38:07.497Z,6.33
2019-01-12T13:40:36.733Z,8.80
2019-01-12T13:43:05.979Z,10.03
2019-01-12T13:45:35.154Z,14.40
2019-01-12T13:48:05.088Z,11.67
2019-01-12T13:50:34.304Z,8.87
2019-01-12T13:53:03.483Z,9.20
2019-01-12T13:55:32.689Z,9.80
2019-01-12T13:58:01.907Z,8.73
2019-01-12T14:00:33.024Z,11.53
2019-01-12T14:03:02.972Z,11.57
2019-01-12T14:05:32.294Z,8.50
2019-01-12T14:08:01.528Z,11.60
2019-01-12T14:10:30.705Z,8.47
2019-01-12T14:12:59.969Z,8.83
2019-01-12T14:15:29.326Z,8.13
2019-01-12T14:17:58.640Z,9.10
2019-01-12T14:20:33.078Z,10.53
2019-01-12T14:23:02.384Z,10.23
2019-01-12T14:25:31.581Z,7.33
2019-01-12T14:28:00.882Z,9.23
2019-01-12T14:30:30.154Z,11.17
2019-01-12T14:32:59.343Z,10.67
2019-01-12T14:35:28.533Z,10.90
2019-01-12T14:37:57.722Z,11.20
2019-01-12T14:40:27.923Z,8.70
2019-01-12T14:42:57.183Z,7.60
2019-01-12T14:45:28.306Z,7.50
2019-01-12T14:47:57.518Z,11.27
2019-01-12T14:50:26.705Z,6.13
2019-01-12T14:52:55.874Z,8.73
2019-01-12T14:55:25.874Z,8.87
2019-01-12T14:58:01.665Z,6.80
2019-01-12T15:00:27.871Z,7.93
2019-01-12T15:02:57.271Z,13.17
2019-01-12T15:05:28.517Z,10.30
2019-01-12T15:07:57.646Z,13.40
2019-01-12T15:10:26.848Z,11.13
2019-01-12T15:12:56.067Z,8.13
2019-01-12T15:15:25.139Z,13.60
2019-01-12T15:17:54.446Z,12.13
2019-01-12T15:20:25.567Z,16.57
2019-01-12T15:22:56.786Z,9.97
2019-01-12T15:25:26.051Z,9.80
2019-01-12T15:27:55.226Z,4.63
2019-01-12T15:30:26.448Z,11.03
2019-01-12T15:32:56.970Z,5.93
2019-01-12T15:35:29.681Z,8.40
2019-01-12T15:37:58.853Z,11.13
2019-01-12T15:40:28.062Z,9.20
2019-01-12T15:42:57.262Z,12.80
2019-01-12T15:45:27.171Z,9.27
2019-01-12T15:47:56.461Z,14.10
2019-01-12T15:50:26.998Z,6.87
2019-01-12T15:52:56.298Z,9.90
2019-01-12T15:55:25.619Z,4.60
2019-01-12T15:57:54.779Z,6.63
2019-01-12T16:00:26.122Z,9.57
2019-01-12T16:02:55.590Z,9.17
2019-01-12T16:05:24.753Z,9.63
2019-01-12T16:07:53.938Z,10.30
2019-01-12T16:10:23.147Z,11.00
2019-01-12T16:12:52.329Z,9.63
2019-01-12T16:15:23.601Z,10.97
2019-01-12T16:17:52.860Z,7.73
2019-01-12T16:20:27.885Z,12.23
2019-01-12T16:22:57.114Z,7.10
2019-01-12T16:25:26.400Z,8.93
2019-01-12T16:27:55.525Z,6.63
2019-01-12T16:30:24.694Z,7.93
2019-01-12T16:32:53.976Z,8.63
2019-01-12T16:35:23.165Z,8.40
2019-01-12T16:37:52.321Z,7.67
2019-01-12T16:40:28.081Z,18.33
2019-01-12T16:42:57.268Z,11.97
2019-01-12T16:45:26.538Z,10.27
2019-01-12T16:47:56.660Z,14.03
2019-01-12T16:50:25.855Z,11.77
2019-01-12T16:52:55.061Z,11.33
2019-01-12T16:55:24.312Z,9.30
2019-01-12T16:57:55.559Z,14.43
2019-01-12T17:00:26.882Z,16.70
2019-01-12T17:02:56.053Z,7.37
2019-01-12T17:05:25.217Z,10.97
2019-01-12T17:07:54.415Z,8.50
2019-01-12T17:10:23.673Z,10.40
2019-01-12T17:12:52.922Z,10.33
2019-01-12T17:15:23.055Z,11.33
2019-01-12T17:17:52.238Z,8.23
2019-01-12T17:20:23.578Z,8.57
2019-01-12T17:22:58.842Z,6.83
2019-01-12T17:25:28.041Z,10.10
2019-01-12T17:27:57.233Z,8.07
2019-01-12T17:30:28.393Z,8.47
2019-01-12T17:32:57.974Z,8.83
2019-01-12T17:35:27.125Z,8.53
2019-01-12T17:37:56.428Z,8.33
2019-01-12T17:40:25.708Z,9.10
2019-01-12T17:42:54.971Z,11.70
2019-01-12T17:45:24.888Z,14.73
2019-01-12T17:47:54.098Z,12.03
2019-01-12T17:50:24.671Z,14.93
2019-01-12T17:52:54.108Z,14.70
2019-01-12T17:55:24.794Z,8.87
2019-01-12T17:57:53.933Z,8.23
2019-01-12T18:00:26.635Z,13.03
2019-01-12T18:02:55.790Z,13.60
2019-01-12T18:05:25.004Z,10.10
2019-01-12T18:07:54.181Z,12.80
2019-01-12T18:10:23.399Z,11.37
2019-01-12T18:12:52.579Z,7.30
2019-01-12T18:15:21.756Z,13.17
2019-01-12T18:17:50.956Z,7.83
2019-01-12T18:20:20.173Z,13.20
2019-01-12T18:22:49.366Z,8.47
2019-01-12T18:25:18.575Z,11.47
2019-01-12T18:27:47.767Z,14.00
2019-01-12T18:30:22.063Z,12.77
2019-01-12T18:32:51.263Z,12.10
2019-01-12T18:35:20.447Z,9.70
2019-01-12T18:37:49.704Z,14.90
2019-01-12T18:40:20.510Z,11.93
2019-01-12T18:42:49.739Z,11.47
2019-01-12T18:45:20.633Z,11.97
2019-01-12T18:47:49.834Z,9.13
2019-01-12T18:50:21.694Z,11.63
2019-01-12T18:52:51.216Z,16.37
2019-01-12T18:55:22.020Z,10.93
2019-01-12T18:57:51.424Z,9.50
2019-01-12T19:00:23.215Z,11.33
2019-01-12T19:02:52.542Z,6.27
2019-01-12T19:05:21.868Z,8.07
2019-01-12T19:07:51.424Z,7.73
2019-01-12T19:10:20.821Z,12.87
2019-01-12T19:12:50.068Z,15.90
2019-01-12T19:15:27.751Z,16.60
2019-01-12T19:17:57.010Z,7.10
2019-01-12T19:20:26.337Z,12.20
2019-01-12T19:22:55.532Z,8.57
2019-01-12T19:25:24.722Z,9.77
2019-01-12T19:27:53.972Z,10.17
2019-01-12T19:30:23.786Z,14.90
2019-01-12T19:32:52.976Z,7.70
2019-01-12T19:35:24.157Z,10.87
2019-01-12T19:37:53.443Z,10.50
2019-01-12T19:40:25.710Z,11.63
2019-01-12T19:42:54.891Z,10.50
2019-01-12T19:45:24.111Z,14.57
2019-01-12T19:47:53.308Z,8.03
2019-01-12T19:50:24.545Z,6.70
2019-01-12T19:52:53.805Z,11.20
2019-01-12T19:55:23.060Z,11.43
2019-01-12T19:57:52.266Z,9.20
2019-01-12T20:00:27.233Z,7.73
2019-01-12T20:02:56.402Z,8.37
2019-01-12T20:05:25.639Z,6.60
2019-01-12T20:07:54.836Z,11.40
2019-01-12T20:10:24.177Z,11.13
2019-01-12T20:12:53.473Z,8.80
2019-01-12T20:15:24.183Z,11.53
2019-01-12T20:17:53.362Z,13.00
2019-01-12T20:20:22.753Z,7.87
2019-01-12T20:22:51.979Z,9.57
2019-01-12T20:25:26.492Z,11.17
2019-01-12T20:27:55.755Z,8.97
2019-01-12T20:30:39.943Z,12.57
2019-01-12T20:33:15.220Z,9.67
2019-01-12T20:36:17.596Z,6.30
2019-01-12T20:38:52.546Z,11.17
2019-01-12T20:41:30.347Z,12.73
2019-01-12T20:44:11.543Z,11.07
2019-01-12T20:46:49.112Z,11.33
2019-01-12T20:49:27.445Z,10.63
2019-01-12T20:52:07.680Z,9.20
2019-01-12T20:54:45.722Z,12.20
2019-01-12T20:57:23.619Z,11.13
2019-01-12T20:59:58.480Z,9.37
2019-01-12T21:02:42.272Z,4.83
2019-01-12T21:05:22.335Z,13.57
2019-01-12T21:07:54.581Z,12.50
2019-01-12T21:10:32.161Z,13.90
2019-01-12T21:13:37.700Z,9.10
2019-01-12T21:16:12.791Z,10.83
2019-01-12T21:18:41.985Z,12.57
2019-01-12T21:21:11.197Z,12.90
2019-01-12T21:23:41.441Z,9.30
2019-01-12T21:26:10.737Z,10.67
2019-01-12T21:28:39.917Z,11.63
2019-01-12T21:31:09.337Z,9.27
2019-01-12T21:33:38.578Z,10.23
2019-01-12T21:36:07.765Z,6.00
2019-01-12T21:38:36.977Z,13.17
2019-01-12T21:41:06.331Z,13.70
2019-01-12T21:43:35.496Z,13.80
2019-01-12T21:46:05.257Z,10.87
2019-01-12T21:48:34.457Z,8.50
2019-01-12T21:51:03.703Z,9.17
2019-01-12T21:53:32.901Z,12.37
2019-01-12T21:56:02.089Z,11.17
2019-01-12T21:58:31.277Z,9.73
2019-01-12T22:01:00.498Z,14.97
2019-01-12T22:03:30.606Z,11.83
2019-01-12T22:05:59.953Z,17.80
2019-01-12T22:08:29.157Z,12.47
2019-01-12T22:10:58.339Z,12.77
2019-01-12T22:13:27.520Z,12.40
2019-01-12T22:15:56.730Z,12.87
2019-01-12T22:18:25.929Z,15.10
2019-01-12T22:20:55.112Z,21.97
2019-01-12T22:23:24.295Z,15.07
2019-01-12T22:25:53.504Z,14.10
2019-01-12T22:28:22.689Z,16.97
2019-01-12T22:30:51.871Z,13.97
2019-01-12T22:33:21.101Z,11.10
2019-01-12T22:35:50.296Z,12.83
2019-01-12T22:38:19.489Z,18.90
2019-01-12T22:40:48.688Z,14.67
2019-01-12T22:43:17.879Z,18.03
2019-01-12T22:45:48.075Z,15.77
2019-01-12T22:48:17.265Z,11.43
2019-01-12T22:50:46.445Z,14.83
2019-01-12T22:53:15.620Z,13.47
2019-01-12T22:55:44.822Z,17.03
2019-01-12T22:58:14.914Z,11.87
2019-01-12T23:00:50.951Z,18.27
2019-01-12T23:03:20.196Z,11.93
2019-01-12T23:05:49.383Z,14.27
2019-01-12T23:08:18.593Z,14.47
2019-01-12T23:10:47.838Z,14.40
2019-01-12T23:13:22.865Z,15.83
2019-01-12T23:15:52.072Z,15.20
2019-01-12T23:18:21.290Z,19.30
2019-01-12T23:20:50.545Z,19.63
2019-01-12T23:23:19.788Z,23.03
2019-01-12T23:25:48.998Z,21.23
2019-01-12T23:28:18.166Z,17.83
2019-01-12T23:30:47.473Z,19.13
2019-01-12T23:33:16.747Z,22.03
2019-01-12T23:35:46.006Z,16.40
2019-01-12T23:38:15.215Z,18.70
2019-01-12T23:40:45.339Z,21.23
2019-01-12T23:43:14.666Z,19.20
2019-01-12T23:45:43.853Z,21.50
2019-01-12T23:48:13.063Z,15.60
2019-01-12T23:50:42.267Z,23.10
2019-01-12T23:53:12.462Z,22.33
2019-01-12T23:55:41.674Z,19.97
2019-01-12T23:58:10.857Z,19.03
